createdAt,value
2023-05-20T00:00:36.053Z,101118.31
2023-05-20T00:03:25.266Z,101110.94
2023-05-20T00:06:14.132Z,101114.31
2023-05-20T00:09:03.387Z,101120.97
2023-05-20T00:11:53.418Z,101119.66
2023-05-20T00:14:42.049Z,101110.34
2023-05-20T00:17:30.764Z,101107.03
2023-05-20T00:20:19.624Z,101113.91
2023-05-20T00:23:08.359Z,101097.06
2023-05-20T00:25:59.125Z,101097.91
2023-05-20T00:28:50.599Z,101097.06
2023-05-20T00:31:39.436Z,101096.53
2023-05-20T00:34:28.128Z,101104.03
2023-05-20T00:37:16.767Z,101098.53
2023-05-20T00:40:05.791Z,101094.22
2023-05-20T00:42:54.682Z,101100.22
2023-05-20T00:45:44.770Z,101095.06
2023-05-20T00:48:42.245Z,101108.09
2023-05-20T00:51:31.046Z,101104.03
2023-05-20T00:54:20.668Z,101102.75
2023-05-20T00:57:11.030Z,101107.25
2023-05-20T01:00:00.023Z,101102.75
2023-05-20T01:02:50.504Z,101101.09
2023-05-20T01:05:42.273Z,101097.41
2023-05-20T01:08:32.297Z,101096.25
2023-05-20T01:11:27.248Z,101094.88
2023-05-20T01:14:19.911Z,101102.75
2023-05-20T01:17:12.646Z,101099.06
2023-05-20T01:20:04.220Z,101094.44
2023-05-20T01:22:57.647Z,101094.06
2023-05-20T01:25:46.342Z,101101.41
2023-05-20T01:28:35.540Z,101098.75
2023-05-20T01:31:27.793Z,101091.44
2023-05-20T01:34:17.008Z,101095.97
2023-05-20T01:37:06.919Z,101102.09
2023-05-20T01:39:58.068Z,101103.75
2023-05-20T01:42:52.893Z,101100.56
2023-05-20T01:45:43.395Z,101107.06
2023-05-20T01:48:32.092Z,101103.44
2023-05-20T01:51:20.971Z,101110.44
2023-05-20T01:54:10.887Z,101098.09
2023-05-20T01:57:01.561Z,101103.44
2023-05-20T01:59:50.425Z,101098.44
2023-05-20T02:02:39.167Z,101090.25
2023-05-20T02:05:27.956Z,101093.41
2023-05-20T02:08:16.611Z,101102.06
2023-05-20T02:11:05.615Z,101088.41
2023-05-20T02:13:55.629Z,101096.09
2023-05-20T02:16:44.252Z,101102.94
2023-05-20T02:19:32.978Z,101099.75
2023-05-20T02:22:21.670Z,101094.06
2023-05-20T02:25:11.587Z,101093.59
2023-05-20T02:28:00.391Z,101095.59
2023-05-20T02:30:51.124Z,101098.44
2023-05-20T02:33:39.851Z,101098.09
2023-05-20T02:36:28.944Z,101087.97
2023-05-20T02:39:17.600Z,101100.09
2023-05-20T02:42:06.605Z,101096.41
2023-05-20T02:44:58.443Z,101094.44
2023-05-20T02:47:49.792Z,101082.44
2023-05-20T02:50:40.986Z,101081.75
2023-05-20T02:53:29.686Z,101073.09
2023-05-20T02:56:21.524Z,101069.41
2023-05-20T02:59:10.207Z,101073.91
2023-05-20T03:02:01.353Z,101069.41
2023-05-20T03:04:53.927Z,101053.41
2023-05-20T03:07:42.648Z,101053.41
2023-05-20T03:10:31.320Z,101042.09
2023-05-20T03:13:19.966Z,101046.75
2023-05-20T03:16:08.845Z,101053.28
2023-05-20T03:18:57.631Z,101062.41
2023-05-20T03:21:47.676Z,101052.09
2023-05-20T03:24:36.334Z,101057.09
2023-05-20T03:27:26.611Z,101055.75
2023-05-20T03:30:15.536Z,101052.44
2023-05-20T03:33:06.039Z,101057.41
2023-05-20T03:35:54.800Z,101061.09
2023-05-20T03:38:45.027Z,101063.97
2023-05-20T03:41:34.697Z,101064.41
2023-05-20T03:44:23.301Z,101060.81
2023-05-20T03:47:13.077Z,101063.63
2023-05-20T03:50:01.793Z,101065.13
2023-05-20T03:52:51.566Z,101070.47
2023-05-20T03:55:41.596Z,101077.81
2023-05-20T03:58:31.265Z,101076.47
2023-05-20T04:01:21.501Z,101069.81
2023-05-20T04:04:10.334Z,101072.00
2023-05-20T04:07:00.585Z,101065.50
2023-05-20T04:09:49.264Z,101070.81
2023-05-20T04:12:39.503Z,101069.97
2023-05-20T04:15:29.704Z,101066.31
2023-05-20T04:18:19.153Z,101063.84
2023-05-20T04:21:08.279Z,101065.50
2023-05-20T04:23:57.012Z,101068.31
2023-05-20T04:26:45.663Z,101061.81
2023-05-20T04:29:35.701Z,101066.66
2023-05-20T04:32:24.411Z,101068.47
2023-05-20T04:35:13.878Z,101076.97
2023-05-20T04:38:03.085Z,101072.84
2023-05-20T04:40:51.750Z,101071.28
2023-05-20T04:43:44.030Z,101075.31
2023-05-20T04:46:36.683Z,101075.66
2023-05-20T04:49:25.917Z,101074.50
2023-05-20T04:52:14.568Z,101075.50
2023-05-20T04:55:03.689Z,101078.81
2023-05-20T04:57:52.361Z,101070.50
2023-05-20T05:00:40.973Z,101070.34
2023-05-20T05:03:31.424Z,101067.50
2023-05-20T05:06:21.354Z,101066.81
2023-05-20T05:09:10.169Z,101066.50
2023-05-20T05:11:58.820Z,101064.47
2023-05-20T05:14:47.474Z,101064.53
2023-05-20T05:17:36.695Z,101061.81
2023-05-20T05:20:26.799Z,101068.47
2023-05-20T05:23:15.495Z,101060.16
2023-05-20T05:26:04.247Z,101063.47
2023-05-20T05:28:52.876Z,101060.81
2023-05-20T05:31:41.587Z,101066.13
2023-05-20T05:34:30.222Z,101068.44
2023-05-20T05:37:21.220Z,101063.63
2023-05-20T05:40:10.838Z,101069.03
2023-05-20T05:42:59.538Z,101062.81
2023-05-20T05:45:48.187Z,101077.16
2023-05-20T05:48:37.966Z,101077.81
2023-05-20T05:51:27.946Z,101072.00
2023-05-20T05:54:17.965Z,101068.47
2023-05-20T05:57:07.810Z,101067.50
2023-05-20T05:59:56.469Z,101060.59
2023-05-20T06:02:45.359Z,101061.56
2023-05-20T06:05:34.599Z,101057.16
2023-05-20T06:08:23.550Z,101052.19
2023-05-20T06:11:13.538Z,101054.47
2023-05-20T06:14:02.863Z,101049.53
2023-05-20T06:16:51.543Z,101053.56
2023-05-20T06:19:40.492Z,101051.84
2023-05-20T06:22:29.278Z,101051.19
2023-05-20T06:25:18.039Z,101059.19
2023-05-20T06:28:08.321Z,101056.22
2023-05-20T06:30:57.426Z,101052.19
2023-05-20T06:33:46.152Z,101049.50
2023-05-20T06:36:35.037Z,101053.63
2023-05-20T06:39:24.873Z,101049.50
2023-05-20T06:42:13.530Z,101053.97
2023-05-20T06:45:03.730Z,101059.50
2023-05-20T06:47:54.204Z,101055.16
2023-05-20T06:50:42.976Z,101046.50
2023-05-20T06:53:31.627Z,101050.19
2023-05-20T06:56:20.225Z,101042.03
2023-05-20T06:59:08.862Z,101034.84
2023-05-20T07:01:58.895Z,101036.97
2023-05-20T07:04:47.640Z,101025.66
2023-05-20T07:07:36.439Z,101021.84
2023-05-20T07:10:25.116Z,101031.22
2023-05-20T07:13:14.934Z,101025.91
2023-05-20T07:16:03.617Z,101021.69
2023-05-20T07:18:53.787Z,101014.03
2023-05-20T07:21:42.818Z,101023.88
2023-05-20T07:24:31.521Z,101008.25
2023-05-20T07:27:20.251Z,101012.22
2023-05-20T07:30:09.907Z,101017.69
2023-05-20T07:32:58.596Z,101015.88
2023-05-20T07:38:38.525Z,101011.56
2023-05-20T07:41:31.882Z,101000.16
2023-05-20T07:44:22.176Z,101006.72
2023-05-20T07:47:10.808Z,100994.84
2023-05-20T07:49:59.552Z,101000.16
2023-05-20T07:52:56.564Z,101009.19
2023-05-20T07:55:47.146Z,100999.16
2023-05-20T07:58:36.124Z,101003.84
2023-05-20T08:01:24.768Z,100997.44
2023-05-20T08:04:13.791Z,100997.94
2023-05-20T08:07:02.934Z,100997.44
2023-05-20T08:09:53.058Z,100996.91
2023-05-20T08:12:41.727Z,100995.44
2023-05-20T08:15:30.597Z,100995.25
2023-05-20T08:18:19.240Z,100976.59
2023-05-20T08:21:08.959Z,100977.06
2023-05-20T08:24:00.029Z,100975.06
2023-05-20T08:26:50.022Z,100971.38
2023-05-20T08:29:38.731Z,100978.09
2023-05-20T08:32:27.488Z,100983.22
2023-05-20T08:35:16.190Z,100978.72
2023-05-20T08:38:04.869Z,100971.38
2023-05-20T08:40:54.289Z,100966.03
2023-05-20T08:43:47.433Z,100957.41
2023-05-20T08:46:37.509Z,100948.88
2023-05-20T08:49:26.290Z,100945.66
2023-05-20T08:52:15.753Z,100944.66
2023-05-20T08:55:07.814Z,100950.28
2023-05-20T08:57:57.182Z,100941.25
2023-05-20T09:00:47.298Z,100938.81
2023-05-20T09:03:36.042Z,100941.28
2023-05-20T09:06:24.814Z,100933.97
2023-05-20T09:09:14.000Z,100944.63
2023-05-20T09:12:03.301Z,100941.84
2023-05-20T09:14:52.200Z,100933.72
2023-05-20T09:17:42.353Z,100936.94
2023-05-20T09:20:31.771Z,100930.16
2023-05-20T09:23:22.149Z,100933.56
2023-05-20T09:26:11.034Z,100933.28
2023-05-20T09:28:59.876Z,100922.22
2023-05-20T09:31:48.872Z,100934.56
2023-05-20T09:34:39.751Z,100927.94
2023-05-20T09:37:30.446Z,100929.22
2023-05-20T09:40:21.182Z,100928.44
2023-05-20T09:43:11.455Z,100926.03
2023-05-20T09:46:00.940Z,100927.03
2023-05-20T09:48:50.651Z,100914.81
2023-05-20T09:51:43.515Z,100911.34
2023-05-20T09:54:33.516Z,100909.59
2023-05-20T09:57:22.224Z,100904.94
2023-05-20T10:00:13.734Z,100891.81
2023-05-20T10:03:02.778Z,100897.97
2023-05-20T10:06:06.709Z,100908.44
2023-05-20T10:09:12.467Z,100890.22
2023-05-20T10:12:14.045Z,100887.59
2023-05-20T10:15:12.256Z,100892.91
2023-05-20T10:18:13.089Z,100880.38
2023-05-20T10:21:02.151Z,100878.84
2023-05-20T10:23:50.863Z,100873.66
2023-05-20T10:26:45.264Z,100876.13
2023-05-20T10:29:45.075Z,100865.78
2023-05-20T10:32:35.968Z,100877.38
2023-05-20T10:35:27.231Z,100879.94
2023-05-20T10:38:15.906Z,100879.94
2023-05-20T10:41:11.353Z,100868.06
2023-05-20T10:44:05.434Z,100859.06
2023-05-20T10:47:24.705Z,100859.69
2023-05-20T10:50:29.014Z,100862.38
2023-05-20T10:53:29.746Z,100863.78
2023-05-20T10:56:25.091Z,100837.91
2023-05-20T10:59:15.781Z,100842.00
2023-05-20T11:02:05.068Z,100837.97
2023-05-20T11:04:54.420Z,100832.16
2023-05-20T11:07:43.118Z,100825.31
2023-05-20T11:10:32.863Z,100830.91
2023-05-20T11:13:22.323Z,100832.06
2023-05-20T11:16:12.456Z,100827.09
2023-05-20T11:19:01.182Z,100828.88
2023-05-20T11:21:50.388Z,100824.94
2023-05-20T11:24:47.868Z,100833.94
2023-05-20T11:27:37.254Z,100828.59
2023-05-20T11:30:27.543Z,100820.44
2023-05-20T11:33:18.806Z,100813.41
2023-05-20T11:36:13.488Z,100818.06
2023-05-20T11:39:16.110Z,100812.56
2023-05-20T11:42:06.020Z,100806.88
2023-05-20T11:44:54.750Z,100802.28
2023-05-20T11:47:46.895Z,100796.53
2023-05-20T11:50:39.736Z,100794.63
2023-05-20T11:53:28.700Z,100784.19
2023-05-20T11:56:17.406Z,100784.47
2023-05-20T11:59:07.146Z,100777.13
2023-05-20T12:01:55.915Z,100780.78
2023-05-20T12:04:44.724Z,100776.66
2023-05-20T12:07:34.818Z,100773.72
2023-05-20T12:10:23.570Z,100774.13
2023-05-20T12:13:13.556Z,100777.59
2023-05-20T12:16:02.338Z,100760.78
2023-05-20T12:18:51.174Z,100761.31
2023-05-20T12:21:39.902Z,100766.75
2023-05-20T12:24:29.847Z,100742.84
2023-05-20T12:27:18.727Z,100746.69
2023-05-20T12:30:09.875Z,100731.66
2023-05-20T12:32:58.600Z,100734.53
2023-05-20T12:35:47.235Z,100725.53
2023-05-20T12:38:36.096Z,100711.59
2023-05-20T12:41:26.178Z,100714.06
2023-05-20T12:44:14.932Z,100708.72
2023-05-20T12:47:03.959Z,100709.56
2023-05-20T12:49:52.769Z,100705.69
2023-05-20T12:52:41.706Z,100709.56
2023-05-20T12:55:30.623Z,100707.34
2023-05-20T12:58:20.671Z,100702.16
2023-05-20T13:01:09.362Z,100700.72
2023-05-20T13:03:58.093Z,100713.31
2023-05-20T13:06:46.839Z,100698.53
2023-05-20T13:09:35.593Z,100696.69
2023-05-20T13:12:26.253Z,100698.09
2023-05-20T13:15:16.341Z,100688.66
2023-05-20T13:18:06.791Z,100692.91
2023-05-20T13:20:55.953Z,100686.94
2023-05-20T13:23:49.786Z,100688.97
2023-05-20T13:26:38.508Z,100693.09
2023-05-20T13:29:27.180Z,100686.06
2023-05-20T13:32:17.742Z,100675.81
2023-05-20T13:35:10.682Z,100686.50
2023-05-20T13:37:59.322Z,100680.31
2023-05-20T13:40:48.953Z,100678.31
2023-05-20T13:43:37.603Z,100672.09
2023-05-20T13:46:26.613Z,100673.34
2023-05-20T13:49:16.897Z,100662.25
2023-05-20T13:52:06.058Z,100657.69
2023-05-20T13:54:54.758Z,100653.59
2023-05-20T13:57:44.593Z,100648.25
2023-05-20T14:00:35.341Z,100660.59
2023-05-20T14:03:29.610Z,100647.84
2023-05-20T14:06:19.975Z,100647.22
2023-05-20T14:09:09.994Z,100640.81
2023-05-20T14:11:58.658Z,100640.81
2023-05-20T14:14:47.369Z,100631.78
2023-05-20T14:17:36.054Z,100624.75
2023-05-20T14:20:25.420Z,100623.94
2023-05-20T14:23:15.466Z,100625.59
2023-05-20T14:26:04.324Z,100622.91
2023-05-20T14:28:53.207Z,100613.25
2023-05-20T14:31:41.928Z,100602.31
2023-05-20T14:34:30.717Z,100600.47
2023-05-20T14:37:19.406Z,100602.06
2023-05-20T14:40:10.750Z,100600.66
2023-05-20T14:42:59.358Z,100593.84
2023-05-20T14:45:48.959Z,100607.44
2023-05-20T14:48:37.665Z,100610.97
2023-05-20T14:51:26.269Z,100610.38
2023-05-20T14:54:15.686Z,100612.81
2023-05-20T14:57:06.849Z,100606.84
2023-05-20T14:59:55.803Z,100597.16
2023-05-20T15:02:44.498Z,100607.47
2023-05-20T15:05:33.517Z,100606.44
2023-05-20T15:08:24.246Z,100606.63
2023-05-20T15:11:12.890Z,100606.63
2023-05-20T15:14:03.013Z,100598.56
2023-05-20T15:16:51.814Z,100599.00
2023-05-20T15:19:41.800Z,100586.00
2023-05-20T15:22:31.239Z,100584.75
2023-05-20T15:25:20.239Z,100573.84
2023-05-20T15:28:08.877Z,100573.88
2023-05-20T15:30:58.936Z,100560.88
2023-05-20T15:33:47.730Z,100563.13
2023-05-20T15:36:36.560Z,100560.84
2023-05-20T15:39:26.138Z,100566.41
2023-05-20T15:42:18.322Z,100562.69
2023-05-20T15:45:08.138Z,100561.25
2023-05-20T15:47:58.356Z,100559.44
2023-05-20T15:50:47.035Z,100558.81
2023-05-20T15:53:35.987Z,100550.56
2023-05-20T15:56:25.049Z,100560.91
2023-05-20T15:59:13.643Z,100561.09
2023-05-20T16:02:02.393Z,100567.69
2023-05-20T16:04:52.668Z,100570.97
2023-05-20T16:07:41.692Z,100569.16
2023-05-20T16:10:32.616Z,100565.44
2023-05-20T16:13:21.613Z,100557.16
2023-05-20T16:16:12.799Z,100561.28
2023-05-20T16:19:02.219Z,100559.22
2023-05-20T16:21:52.881Z,100557.16
2023-05-20T16:24:41.929Z,100572.00
2023-05-20T16:27:30.990Z,100570.34
2023-05-20T16:30:20.927Z,100564.38
2023-05-20T16:33:09.633Z,100573.63
2023-05-20T16:35:58.424Z,100570.34
2023-05-20T16:38:49.724Z,100577.34
2023-05-20T16:41:38.486Z,100564.56
2023-05-20T16:44:27.141Z,100581.47
2023-05-20T16:47:16.260Z,100578.34
2023-05-20T16:50:05.451Z,100578.34
2023-05-20T16:52:55.534Z,100573.00
2023-05-20T16:55:46.076Z,100578.13
2023-05-20T16:58:34.795Z,100581.19
2023-05-20T17:01:23.868Z,100579.38
2023-05-20T17:04:12.737Z,100585.34
2023-05-20T17:07:02.185Z,100581.03
2023-05-20T17:09:51.059Z,100583.09
2023-05-20T17:12:41.172Z,100582.06
2023-05-20T17:15:29.949Z,100584.34
2023-05-20T17:18:18.663Z,100591.72
2023-05-20T17:21:07.497Z,100595.81
2023-05-20T17:23:56.274Z,100596.66
2023-05-20T17:26:44.977Z,100596.06
2023-05-20T17:29:35.002Z,100610.63
2023-05-20T17:32:23.705Z,100602.00
2023-05-20T17:35:12.330Z,100599.75
2023-05-20T17:38:01.392Z,100598.66
2023-05-20T17:40:50.575Z,100597.00
2023-05-20T17:43:39.172Z,100599.88
2023-05-20T17:46:29.226Z,100604.81
2023-05-20T17:49:17.909Z,100608.91
2023-05-20T17:52:07.356Z,100614.25
2023-05-20T17:54:56.157Z,100608.91
2023-05-20T17:57:44.852Z,100622.72
2023-05-20T18:00:34.647Z,100629.91
2023-05-20T18:03:25.168Z,100624.72
2023-05-20T18:06:14.046Z,100624.72
2023-05-20T18:09:04.598Z,100620.84
2023-05-20T18:11:53.709Z,100625.75
2023-05-20T18:14:42.579Z,100632.75
2023-05-20T18:17:31.371Z,100625.72
2023-05-20T18:20:21.676Z,100639.69
2023-05-20T18:23:10.487Z,100638.69
2023-05-20T18:25:59.145Z,100642.63
2023-05-20T18:28:48.058Z,100642.56
2023-05-20T18:31:37.073Z,100655.69
2023-05-20T18:34:25.719Z,100651.94
2023-05-20T18:37:15.737Z,100651.13
2023-05-20T18:40:06.445Z,100661.28
2023-05-20T18:42:55.292Z,100649.75
2023-05-20T18:45:44.167Z,100660.00
2023-05-20T18:48:32.883Z,100662.69
2023-05-20T18:51:22.130Z,100658.59
2023-05-20T18:54:12.295Z,100655.31
2023-05-20T18:57:04.903Z,100654.44
2023-05-20T18:59:53.805Z,100656.50
2023-05-20T19:02:44.399Z,100670.00
2023-05-20T19:05:33.192Z,100670.00
2023-05-20T19:08:23.200Z,100669.63
2023-05-20T19:11:13.283Z,100670.84
2023-05-20T19:14:01.963Z,100659.75
2023-05-20T19:16:50.738Z,100674.56
2023-05-20T19:19:39.490Z,100672.94
2023-05-20T19:22:28.192Z,100678.66
2023-05-20T19:25:16.982Z,100678.66
2023-05-20T19:28:07.177Z,100679.53
2023-05-20T19:30:55.908Z,100665.72
2023-05-20T19:33:44.548Z,100672.69
2023-05-20T19:36:34.721Z,100664.63
2023-05-20T19:39:23.630Z,100675.13
2023-05-20T19:42:12.449Z,100670.81
2023-05-20T19:45:02.710Z,100680.47
2023-05-20T19:47:51.675Z,100693.84
2023-05-20T19:50:40.389Z,100691.34
2023-05-20T19:53:28.987Z,100698.91
2023-05-20T19:56:20.074Z,100692.56
2023-05-20T19:59:08.909Z,100699.94
2023-05-20T20:02:02.805Z,100699.19
2023-05-20T20:04:51.923Z,100690.53
2023-05-20T20:07:40.789Z,100689.88
2023-05-20T20:10:31.496Z,100688.44
2023-05-20T20:13:20.133Z,100694.97
2023-05-20T20:16:08.953Z,100687.59
2023-05-20T20:18:59.021Z,100687.59
2023-05-20T20:21:48.593Z,100683.44
2023-05-20T20:24:37.445Z,100682.63
2023-05-20T20:27:26.410Z,100682.63
2023-05-20T20:30:16.124Z,100686.09
2023-05-20T20:33:07.065Z,100688.50
2023-05-20T20:35:58.330Z,100688.22
2023-05-20T20:38:47.705Z,100686.94
2023-05-20T20:41:38.635Z,100685.13
2023-05-20T20:44:29.179Z,100690.09
2023-05-20T20:47:17.886Z,100686.94
2023-05-20T20:50:08.993Z,100687.59
2023-05-20T20:52:59.147Z,100680.63
2023-05-20T20:55:47.838Z,100689.47
2023-05-20T20:58:37.470Z,100682.25
2023-05-20T21:01:26.280Z,100685.31
2023-05-20T21:04:17.273Z,100675.00
2023-05-20T21:07:07.672Z,100675.38
2023-05-20T21:09:57.790Z,100673.09
2023-05-20T21:12:46.416Z,100666.09
2023-05-20T21:15:35.470Z,100664.47
2023-05-20T21:18:26.088Z,100664.91
2023-05-20T21:21:16.581Z,100662.00
2023-05-20T21:24:05.548Z,100650.06
2023-05-20T21:26:55.638Z,100666.72
2023-05-20T21:29:44.277Z,100654.16
2023-05-20T21:32:33.529Z,100663.81
2023-05-20T21:35:22.205Z,100658.28
2023-05-20T21:38:13.398Z,100655.41
2023-05-20T21:41:02.106Z,100656.22
2023-05-20T21:43:52.208Z,100657.88
2023-05-20T21:46:41.498Z,100659.25
2023-05-20T21:49:30.208Z,100653.53
2023-05-20T21:52:18.892Z,100663.19
2023-05-20T21:55:08.761Z,100655.31
2023-05-20T21:57:57.707Z,100657.38
2023-05-20T22:00:47.773Z,100655.72
2023-05-20T22:03:36.910Z,100658.00
2023-05-20T22:06:25.860Z,100660.28
2023-05-20T22:09:14.915Z,100655.72
2023-05-20T22:12:03.893Z,100661.06
2023-05-20T22:14:52.568Z,100656.97
2023-05-20T22:17:43.463Z,100648.34
2023-05-20T22:20:33.734Z,100655.31
2023-05-20T22:23:22.631Z,100652.44
2023-05-20T22:26:11.239Z,100656.94
2023-05-20T22:28:59.879Z,100649.94
2023-05-20T22:31:49.564Z,100645.78
2023-05-20T22:34:39.636Z,100645.16
2023-05-20T22:37:29.974Z,100636.34
2023-05-20T22:40:18.843Z,100627.72
2023-05-20T22:43:07.532Z,100626.34
2023-05-20T22:45:56.192Z,100629.41
2023-05-20T22:48:45.229Z,100627.72
2023-05-20T22:51:36.519Z,100633.94
2023-05-20T22:54:25.165Z,100624.44
2023-05-20T22:57:13.888Z,100619.91
2023-05-20T23:00:02.855Z,100617.44
2023-05-20T23:02:52.405Z,100607.97
2023-05-20T23:05:42.315Z,100609.03
2023-05-20T23:08:32.389Z,100609.28
2023-05-20T23:11:21.520Z,100607.78
2023-05-20T23:14:10.102Z,100608.78
2023-05-20T23:16:58.792Z,100610.00
2023-05-20T23:19:47.422Z,100607.38
2023-05-20T23:22:36.084Z,100606.78
2023-05-20T23:25:26.182Z,100618.31
2023-05-20T23:28:14.927Z,100617.25
2023-05-20T23:31:03.664Z,100621.38
2023-05-20T23:33:52.679Z,100611.66
2023-05-20T23:36:42.179Z,100611.47
2023-05-20T23:39:30.885Z,100609.38
2023-05-20T23:42:20.848Z,100607.09
2023-05-20T23:45:10.522Z,100599.75
2023-05-20T23:48:01.112Z,100598.09
2023-05-20T23:50:50.048Z,100598.88
2023-05-20T23:53:38.622Z,100604.59
2023-05-20T23:56:27.258Z,100604.59
2023-05-20T23:59:17.339Z,100602.34
